sensor_id;sensor_type;location;lat;lon;timestamp;P1;durP1;ratioP1;P2;durP2;ratioP2
65039;SDS011;51606;45.000;38.612;2024-02-14T04:29:25;8.95;;;5.13;;
65039;SDS011;51606;45.000;38.612;2024-02-14T04:31:54;15.50;;;7.90;;
65039;SDS011;51606;45.000;38.612;2024-02-14T04:34:20;13.30;;;7.13;;
65039;SDS011;51606;45.000;38.612;2024-02-14T04:36:47;14.75;;;8.32;;
65039;SDS011;51606;45.000;38.612;2024-02-14T04:39:13;21.55;;;9.35;;
65039;SDS011;51606;45.000;38.612;2024-02-14T04:41:39;15.30;;;8.32;;
65039;SDS011;51606;45.000;38.612;2024-02-14T04:44:06;15.82;;;7.38;;
65039;SDS011;51606;45.000;38.612;2024-02-14T04:46:32;11.15;;;7.10;;
65039;SDS011;51606;45.000;38.612;2024-02-14T04:49:01;10.32;;;5.38;;
65039;SDS011;51606;45.000;38.612;2024-02-14T04:51:31;15.50;;;8.32;;
65039;SDS011;51606;45.000;38.612;2024-02-14T04:53:57;17.40;;;7.03;;
65039;SDS011;51606;45.000;38.612;2024-02-14T04:56:27;17.25;;;6.68;;
65039;SDS011;51606;45.000;38.612;2024-02-14T04:58:53;14.00;;;6.85;;
65039;SDS011;51606;45.000;38.612;2024-02-14T05:01:23;21.20;;;6.75;;
65039;SDS011;51606;45.000;38.612;2024-02-14T05:03:50;21.42;;;6.88;;
65039;SDS011;51606;45.000;38.612;2024-02-14T05:06:16;14.65;;;7.15;;
65039;SDS011;51606;45.000;38.612;2024-02-14T05:08:43;21.08;;;6.55;;
65039;SDS011;51606;45.000;38.612;2024-02-14T05:11:09;12.63;;;6.80;;
65039;SDS011;51606;45.000;38.612;2024-02-14T05:13:35;11.55;;;6.05;;
65039;SDS011;51606;45.000;38.612;2024-02-14T05:16:03;8.35;;;5.78;;
65039;SDS011;51606;45.000;38.612;2024-02-14T05:18:30;13.20;;;5.95;;
65039;SDS011;51606;45.000;38.612;2024-02-14T05:20:56;10.68;;;6.40;;
65039;SDS011;51606;45.000;38.612;2024-02-14T05:23:23;8.73;;;5.70;;
65039;SDS011;51606;45.000;38.612;2024-02-14T05:25:50;8.93;;;5.82;;
65039;SDS011;51606;45.000;38.612;2024-02-14T05:28:16;14.15;;;6.47;;
65039;SDS011;51606;45.000;38.612;2024-02-14T05:30:45;15.20;;;6.55;;
65039;SDS011;51606;45.000;38.612;2024-02-14T05:33:11;10.80;;;6.05;;
65039;SDS011;51606;45.000;38.612;2024-02-14T05:35:38;14.70;;;7.55;;
65039;SDS011;51606;45.000;38.612;2024-02-14T05:38:04;17.27;;;8.15;;
65039;SDS011;51606;45.000;38.612;2024-02-14T05:40:33;18.85;;;9.35;;
65039;SDS011;51606;45.000;38.612;2024-02-14T05:43:01;11.40;;;5.55;;
65039;SDS011;51606;45.000;38.612;2024-02-14T05:45:27;19.00;;;10.02;;
65039;SDS011;51606;45.000;38.612;2024-02-14T05:47:54;13.75;;;6.07;;
65039;SDS011;51606;45.000;38.612;2024-02-14T05:50:20;29.65;;;5.85;;
65039;SDS011;51606;45.000;38.612;2024-02-14T05:52:47;12.43;;;6.45;;
65039;SDS011;51606;45.000;38.612;2024-02-14T05:55:13;11.38;;;5.40;;
65039;SDS011;51606;45.000;38.612;2024-02-14T05:57:40;18.70;;;6.15;;
65039;SDS011;51606;45.000;38.612;2024-02-14T06:00:07;9.15;;;5.78;;
65039;SDS011;51606;45.000;38.612;2024-02-14T06:02:38;11.82;;;6.00;;
65039;SDS011;51606;45.000;38.612;2024-02-14T06:05:08;11.93;;;5.20;;
65039;SDS011;51606;45.000;38.612;2024-02-14T06:07:37;23.83;;;5.80;;
65039;SDS011;51606;45.000;38.612;2024-02-14T06:10:03;10.68;;;5.05;;
65039;SDS011;51606;45.000;38.612;2024-02-14T06:12:32;11.05;;;5.28;;
65039;SDS011;51606;45.000;38.612;2024-02-14T06:15:00;11.48;;;6.22;;
65039;SDS011;51606;45.000;38.612;2024-02-14T06:17:26;11.43;;;5.97;;
65039;SDS011;51606;45.000;38.612;2024-02-14T06:19:53;20.88;;;6.55;;
65039;SDS011;51606;45.000;38.612;2024-02-14T06:22:20;9.93;;;4.95;;
65039;SDS011;51606;45.000;38.612;2024-02-14T06:24:47;11.18;;;4.68;;
65039;SDS011;51606;45.000;38.612;2024-02-14T06:27:16;16.35;;;4.25;;
65039;SDS011;51606;45.000;38.612;2024-02-14T06:29:43;6.43;;;4.07;;
65039;SDS011;51606;45.000;38.612;2024-02-14T06:32:12;6.57;;;4.22;;
65039;SDS011;51606;45.000;38.612;2024-02-14T06:34:40;6.63;;;3.70;;
65039;SDS011;51606;45.000;38.612;2024-02-14T06:37:07;8.90;;;4.00;;
65039;SDS011;51606;45.000;38.612;2024-02-14T06:39:33;16.73;;;4.20;;
65039;SDS011;51606;45.000;38.612;2024-02-14T06:41:59;6.32;;;3.25;;
65039;SDS011;51606;45.000;38.612;2024-02-14T06:44:26;12.80;;;4.43;;
65039;SDS011;51606;45.000;38.612;2024-02-14T06:46:52;10.80;;;4.65;;
65039;SDS011;51606;45.000;38.612;2024-02-14T06:49:19;8.75;;;4.13;;
65039;SDS011;51606;45.000;38.612;2024-02-14T06:51:45;21.25;;;5.40;;
65039;SDS011;51606;45.000;38.612;2024-02-14T06:54:11;34.78;;;5.97;;
65039;SDS011;51606;45.000;38.612;2024-02-14T06:56:38;10.73;;;5.63;;
65039;SDS011;51606;45.000;38.612;2024-02-14T06:59:04;12.70;;;4.90;;
65039;SDS011;51606;45.000;38.612;2024-02-14T07:01:31;34.17;;;5.18;;
65039;SDS011;51606;45.000;38.612;2024-02-14T07:03:58;13.35;;;5.38;;
65039;SDS011;51606;45.000;38.612;2024-02-14T07:06:24;15.90;;;5.05;;
65039;SDS011;51606;45.000;38.612;2024-02-14T07:08:51;18.77;;;6.57;;
65039;SDS011;51606;45.000;38.612;2024-02-14T07:11:17;14.60;;;7.35;;
65039;SDS011;51606;45.000;38.612;2024-02-14T07:13:44;17.80;;;8.27;;
65039;SDS011;51606;45.000;38.612;2024-02-14T07:16:10;15.38;;;7.63;;
65039;SDS011;51606;45.000;38.612;2024-02-14T07:18:37;13.68;;;6.47;;
65039;SDS011;51606;45.000;38.612;2024-02-14T07:21:03;14.50;;;7.68;;
65039;SDS011;51606;45.000;38.612;2024-02-14T07:23:31;14.65;;;5.70;;
65039;SDS011;51606;45.000;38.612;2024-02-14T07:25:59;26.83;;;7.10;;
65039;SDS011;51606;45.000;38.612;2024-02-14T07:28:27;13.05;;;6.35;;
65039;SDS011;51606;45.000;38.612;2024-02-14T07:30:53;9.52;;;6.03;;
65039;SDS011;51606;45.000;38.612;2024-02-14T07:33:20;18.08;;;7.32;;
65039;SDS011;51606;45.000;38.612;2024-02-14T07:35:47;13.80;;;6.20;;
65039;SDS011;51606;45.000;38.612;2024-02-14T07:38:14;13.30;;;5.85;;
65039;SDS011;51606;45.000;38.612;2024-02-14T07:40:42;22.70;;;7.57;;
65039;SDS011;51606;45.000;38.612;2024-02-14T07:43:08;11.90;;;6.43;;
65039;SDS011;51606;45.000;38.612;2024-02-14T07:45:35;22.70;;;6.97;;
65039;SDS011;51606;45.000;38.612;2024-02-14T07:48:01;9.77;;;6.05;;
65039;SDS011;51606;45.000;38.612;2024-02-14T07:50:29;13.57;;;7.65;;
65039;SDS011;51606;45.000;38.612;2024-02-14T07:52:55;17.23;;;7.10;;
65039;SDS011;51606;45.000;38.612;2024-02-14T07:55:21;15.52;;;7.22;;
65039;SDS011;51606;45.000;38.612;2024-02-14T07:57:48;12.90;;;6.68;;
65039;SDS011;51606;45.000;38.612;2024-02-14T08:08:42;14.02;;;6.28;;
65039;SDS011;51606;45.000;38.612;2024-02-14T08:11:04;19.58;;;5.88;;
65039;SDS011;51606;45.000;38.612;2024-02-14T08:13:31;13.15;;;6.47;;
65039;SDS011;51606;45.000;38.612;2024-02-14T08:15:58;20.48;;;8.18;;
65039;SDS011;51606;45.000;38.612;2024-02-14T08:18:24;15.10;;;6.65;;
65039;SDS011;51606;45.000;38.612;2024-02-14T08:20:53;16.30;;;7.82;;
65039;SDS011;51606;45.000;38.612;2024-02-14T08:23:19;19.35;;;8.82;;
65039;SDS011;51606;45.000;38.612;2024-02-14T08:25:46;19.63;;;8.75;;
65039;SDS011;51606;45.000;38.612;2024-02-14T08:28:12;12.85;;;7.35;;
65039;SDS011;51606;45.000;38.612;2024-02-14T08:30:40;18.80;;;7.85;;
65039;SDS011;51606;45.000;38.612;2024-02-14T08:33:07;15.57;;;7.88;;
65039;SDS011;51606;45.000;38.612;2024-02-14T08:35:33;16.02;;;7.70;;
65039;SDS011;51606;45.000;38.612;2024-02-14T08:37:59;16.38;;;7.32;;
65039;SDS011;51606;45.000;38.612;2024-02-14T08:40:26;15.68;;;8.23;;
65039;SDS011;51606;45.000;38.612;2024-02-14T08:42:52;34.67;;;9.00;;
65039;SDS011;51606;45.000;38.612;2024-02-14T08:45:19;20.58;;;9.13;;
65039;SDS011;51606;45.000;38.612;2024-02-14T08:47:46;36.90;;;9.27;;
65039;SDS011;51606;45.000;38.612;2024-02-14T08:50:12;35.70;;;9.15;;
65039;SDS011;51606;45.000;38.612;2024-02-14T08:52:39;17.20;;;8.55;;
65039;SDS011;51606;45.000;38.612;2024-02-14T08:55:06;16.33;;;7.90;;
65039;SDS011;51606;45.000;38.612;2024-02-14T08:57:40;16.88;;;8.20;;
65039;SDS011;51606;45.000;38.612;2024-02-14T09:00:07;19.30;;;9.63;;
65039;SDS011;51606;45.000;38.612;2024-02-14T09:02:36;18.73;;;8.77;;
65039;SDS011;51606;45.000;38.612;2024-02-14T09:05:03;29.40;;;9.23;;
65039;SDS011;51606;45.000;38.612;2024-02-14T09:07:31;25.80;;;10.38;;
65039;SDS011;51606;45.000;38.612;2024-02-14T09:09:59;21.38;;;9.23;;
65039;SDS011;51606;45.000;38.612;2024-02-14T09:12:26;21.67;;;9.30;;
65039;SDS011;51606;45.000;38.612;2024-02-14T09:14:52;16.90;;;8.38;;
65039;SDS011;51606;45.000;38.612;2024-02-14T09:17:19;24.58;;;9.45;;
65039;SDS011;51606;45.000;38.612;2024-02-14T09:19:45;17.00;;;8.45;;
65039;SDS011;51606;45.000;38.612;2024-02-14T09:22:11;19.75;;;8.50;;
65039;SDS011;51606;45.000;38.612;2024-02-14T09:24:43;16.75;;;9.18;;
65039;SDS011;51606;45.000;38.612;2024-02-14T09:27:10;27.17;;;9.25;;
65039;SDS011;51606;45.000;38.612;2024-02-14T09:29:36;23.77;;;9.85;;
65039;SDS011;51606;45.000;38.612;2024-02-14T09:32:05;18.92;;;9.38;;
65039;SDS011;51606;45.000;38.612;2024-02-14T09:34:31;17.15;;;8.80;;
65039;SDS011;51606;45.000;38.612;2024-02-14T09:36:58;19.98;;;8.85;;
65039;SDS011;51606;45.000;38.612;2024-02-14T09:39:25;22.45;;;9.63;;
65039;SDS011;51606;45.000;38.612;2024-02-14T09:41:51;23.90;;;8.95;;
65039;SDS011;51606;45.000;38.612;2024-02-14T09:44:22;17.85;;;8.75;;
65039;SDS011;51606;45.000;38.612;2024-02-14T09:46:49;49.95;;;9.70;;
65039;SDS011;51606;45.000;38.612;2024-02-14T09:49:16;23.00;;;8.57;;
65039;SDS011;51606;45.000;38.612;2024-02-14T09:51:44;18.88;;;10.00;;
65039;SDS011;51606;45.000;38.612;2024-02-14T09:54:12;23.95;;;9.77;;
65039;SDS011;51606;45.000;38.612;2024-02-14T09:56:39;20.17;;;8.80;;
65039;SDS011;51606;45.000;38.612;2024-02-14T09:59:06;25.27;;;8.80;;
65039;SDS011;51606;45.000;38.612;2024-02-14T10:01:33;17.95;;;9.02;;
65039;SDS011;51606;45.000;38.612;2024-02-14T10:04:00;17.10;;;8.57;;
65039;SDS011;51606;45.000;38.612;2024-02-14T10:06:26;15.35;;;8.65;;
65039;SDS011;51606;45.000;38.612;2024-02-14T10:08:53;20.58;;;9.20;;
65039;SDS011;51606;45.000;38.612;2024-02-14T10:11:20;23.88;;;9.00;;
65039;SDS011;51606;45.000;38.612;2024-02-14T10:13:52;13.05;;;7.72;;
65039;SDS011;51606;45.000;38.612;2024-02-14T10:16:22;17.75;;;8.25;;
65039;SDS011;51606;45.000;38.612;2024-02-14T10:18:49;22.90;;;8.25;;
65039;SDS011;51606;45.000;38.612;2024-02-14T10:21:16;13.43;;;7.20;;
65039;SDS011;51606;45.000;38.612;2024-02-14T10:23:45;13.23;;;7.80;;
65039;SDS011;51606;45.000;38.612;2024-02-14T10:26:15;19.92;;;8.20;;
65039;SDS011;51606;45.000;38.612;2024-02-14T10:28:42;14.07;;;6.82;;
65039;SDS011;51606;45.000;38.612;2024-02-14T10:31:10;15.77;;;7.53;;
65039;SDS011;51606;45.000;38.612;2024-02-14T10:33:37;17.40;;;6.85;;
65039;SDS011;51606;45.000;38.612;2024-02-14T10:36:06;13.15;;;7.40;;
65039;SDS011;51606;45.000;38.612;2024-02-14T10:38:34;14.32;;;7.28;;
65039;SDS011;51606;45.000;38.612;2024-02-14T10:41:04;17.08;;;8.18;;
65039;SDS011;51606;45.000;38.612;2024-02-14T10:43:31;20.45;;;7.00;;
65039;SDS011;51606;45.000;38.612;2024-02-14T10:46:02;13.45;;;5.97;;
65039;SDS011;51606;45.000;38.612;2024-02-14T10:48:34;13.90;;;6.20;;
65039;SDS011;51606;45.000;38.612;2024-02-14T10:51:04;9.82;;;5.28;;
65039;SDS011;51606;45.000;38.612;2024-02-14T10:53:32;9.10;;;5.50;;
65039;SDS011;51606;45.000;38.612;2024-02-14T10:56:00;11.40;;;4.97;;
65039;SDS011;51606;45.000;38.612;2024-02-14T10:58:28;7.40;;;4.63;;
65039;SDS011;51606;45.000;38.612;2024-02-14T11:00:56;11.18;;;5.68;;
65039;SDS011;51606;45.000;38.612;2024-02-14T11:03:23;10.60;;;5.13;;
65039;SDS011;51606;45.000;38.612;2024-02-14T11:05:53;21.15;;;5.45;;
65039;SDS011;51606;45.000;38.612;2024-02-14T11:08:28;12.15;;;5.15;;
65039;SDS011;51606;45.000;38.612;2024-02-14T11:10:58;8.18;;;4.63;;
65039;SDS011;51606;45.000;38.612;2024-02-14T11:13:28;12.98;;;5.22;;
65039;SDS011;51606;45.000;38.612;2024-02-14T11:16:01;14.32;;;5.15;;
65039;SDS011;51606;45.000;38.612;2024-02-14T11:18:30;15.85;;;5.68;;
65039;SDS011;51606;45.000;38.612;2024-02-14T11:20:57;21.10;;;5.80;;
65039;SDS011;51606;45.000;38.612;2024-02-14T11:23:24;13.25;;;6.00;;
65039;SDS011;51606;45.000;38.612;2024-02-14T11:26:01;11.55;;;5.40;;
65039;SDS011;51606;45.000;38.612;2024-02-14T11:28:36;13.40;;;5.50;;
65039;SDS011;51606;45.000;38.612;2024-02-14T11:31:06;10.68;;;5.45;;
65039;SDS011;51606;45.000;38.612;2024-02-14T11:33:35;27.98;;;9.43;;
65039;SDS011;51606;45.000;38.612;2024-02-14T11:36:08;20.65;;;8.75;;
65039;SDS011;51606;45.000;38.612;2024-02-14T11:50:19;17.13;;;8.75;;
65039;SDS011;51606;45.000;38.612;2024-02-14T11:53:06;18.02;;;8.82;;
65039;SDS011;51606;45.000;38.612;2024-02-14T11:55:39;25.98;;;9.68;;
65039;SDS011;51606;45.000;38.612;2024-02-14T11:58:26;22.40;;;9.88;;
65039;SDS011;51606;45.000;38.612;2024-02-14T12:01:18;17.55;;;9.10;;
65039;SDS011;51606;45.000;38.612;2024-02-14T12:04:06;23.73;;;8.70;;
65039;SDS011;51606;45.000;38.612;2024-02-14T12:06:38;27.75;;;9.43;;
65039;SDS011;51606;45.000;38.612;2024-02-14T12:09:07;23.77;;;9.23;;
65039;SDS011;51606;45.000;38.612;2024-02-14T12:11:38;20.17;;;9.48;;
65039;SDS011;51606;45.000;38.612;2024-02-14T12:14:26;20.77;;;8.48;;
65039;SDS011;51606;45.000;38.612;2024-02-14T12:17:16;25.85;;;9.25;;
65039;SDS011;51606;45.000;38.612;2024-02-14T12:20:05;17.30;;;8.55;;
65039;SDS011;51606;45.000;38.612;2024-02-14T12:22:35;16.80;;;8.35;;
65039;SDS011;51606;45.000;38.612;2024-02-14T12:25:02;16.48;;;8.65;;
65039;SDS011;51606;45.000;38.612;2024-02-14T12:27:34;17.33;;;9.20;;
65039;SDS011;51606;45.000;38.612;2024-02-14T12:30:04;27.38;;;8.93;;
65039;SDS011;51606;45.000;38.612;2024-02-14T12:32:32;19.17;;;8.88;;
65039;SDS011;51606;45.000;38.612;2024-02-14T12:34:59;20.85;;;9.13;;
65039;SDS011;51606;45.000;38.612;2024-02-14T12:37:26;22.30;;;9.90;;
65039;SDS011;51606;45.000;38.612;2024-02-14T12:39:52;17.98;;;8.98;;
65039;SDS011;51606;45.000;38.612;2024-02-14T12:42:19;26.27;;;8.98;;
65039;SDS011;51606;45.000;38.612;2024-02-14T12:44:51;13.68;;;7.70;;
65039;SDS011;51606;45.000;38.612;2024-02-14T12:47:20;20.00;;;9.52;;
65039;SDS011;51606;45.000;38.612;2024-02-14T12:49:47;16.88;;;8.95;;
65039;SDS011;51606;45.000;38.612;2024-02-14T12:52:15;19.80;;;8.90;;
65039;SDS011;51606;45.000;38.612;2024-02-14T12:54:42;24.83;;;9.70;;
65039;SDS011;51606;45.000;38.612;2024-02-14T12:57:14;23.05;;;9.30;;
65039;SDS011;51606;45.000;38.612;2024-02-14T12:59:40;22.38;;;9.63;;
65039;SDS011;51606;45.000;38.612;2024-02-14T13:02:07;23.55;;;10.65;;
65039;SDS011;51606;45.000;38.612;2024-02-14T13:04:33;18.42;;;9.60;;
65039;SDS011;51606;45.000;38.612;2024-02-14T13:07:00;25.73;;;9.93;;
65039;SDS011;51606;45.000;38.612;2024-02-14T13:09:27;26.20;;;8.80;;
65039;SDS011;51606;45.000;38.612;2024-02-14T13:11:54;28.90;;;9.48;;
65039;SDS011;51606;45.000;38.612;2024-02-14T13:14:20;16.83;;;8.40;;
65039;SDS011;51606;45.000;38.612;2024-02-14T13:16:46;24.60;;;8.85;;
65039;SDS011;51606;45.000;38.612;2024-02-14T13:19:13;13.88;;;8.15;;
65039;SDS011;51606;45.000;38.612;2024-02-14T13:21:39;15.93;;;8.15;;
65039;SDS011;51606;45.000;38.612;2024-02-14T13:24:09;17.88;;;8.70;;
65039;SDS011;51606;45.000;38.612;2024-02-14T13:26:38;10.93;;;7.15;;
65039;SDS011;51606;45.000;38.612;2024-02-14T13:29:05;15.10;;;7.38;;
65039;SDS011;51606;45.000;38.612;2024-02-14T13:31:32;19.52;;;7.82;;
65039;SDS011;51606;45.000;38.612;2024-02-14T13:33:59;22.27;;;7.45;;
65039;SDS011;51606;45.000;38.612;2024-02-14T13:36:25;15.57;;;7.25;;
65039;SDS011;51606;45.000;38.612;2024-02-14T13:38:52;14.00;;;7.35;;
65039;SDS011;51606;45.000;38.612;2024-02-14T13:41:18;12.05;;;6.57;;
65039;SDS011;51606;45.000;38.612;2024-02-14T13:43:44;12.48;;;6.82;;
65039;SDS011;51606;45.000;38.612;2024-02-14T13:46:10;12.38;;;7.18;;
65039;SDS011;51606;45.000;38.612;2024-02-14T13:48:37;10.40;;;6.03;;
65039;SDS011;51606;45.000;38.612;2024-02-14T13:51:03;10.68;;;6.07;;
65039;SDS011;51606;45.000;38.612;2024-02-14T13:53:30;17.65;;;7.05;;
65039;SDS011;51606;45.000;38.612;2024-02-14T13:55:56;13.15;;;6.28;;
65039;SDS011;51606;45.000;38.612;2024-02-14T13:58:22;17.27;;;7.07;;
65039;SDS011;51606;45.000;38.612;2024-02-14T14:00:49;24.58;;;6.95;;
65039;SDS011;51606;45.000;38.612;2024-02-14T14:03:15;21.50;;;7.60;;
65039;SDS011;51606;45.000;38.612;2024-02-14T14:05:41;25.83;;;7.05;;
65039;SDS011;51606;45.000;38.612;2024-02-14T14:08:07;14.82;;;6.63;;
65039;SDS011;51606;45.000;38.612;2024-02-14T14:10:33;25.60;;;6.90;;
65039;SDS011;51606;45.000;38.612;2024-02-14T14:13:00;13.38;;;6.88;;
65039;SDS011;51606;45.000;38.612;2024-02-14T14:15:26;17.13;;;7.28;;
65039;SDS011;51606;45.000;38.612;2024-02-14T14:17:54;17.50;;;7.53;;
65039;SDS011;51606;45.000;38.612;2024-02-14T14:20:20;15.07;;;8.32;;
65039;SDS011;51606;45.000;38.612;2024-02-14T14:22:47;18.83;;;8.20;;
65039;SDS011;51606;45.000;38.612;2024-02-14T14:25:14;12.70;;;7.55;;
65039;SDS011;51606;45.000;38.612;2024-02-14T14:27:40;15.85;;;7.80;;
65039;SDS011;51606;45.000;38.612;2024-02-14T14:30:08;20.58;;;8.93;;
65039;SDS011;51606;45.000;38.612;2024-02-14T14:32:34;23.55;;;7.80;;
65039;SDS011;51606;45.000;38.612;2024-02-14T14:35:01;21.27;;;8.30;;
65039;SDS011;51606;45.000;38.612;2024-02-14T14:37:28;24.42;;;8.88;;
65039;SDS011;51606;45.000;38.612;2024-02-14T14:39:54;14.55;;;7.82;;
65039;SDS011;51606;45.000;38.612;2024-02-14T14:42:21;17.15;;;7.95;;
65039;SDS011;51606;45.000;38.612;2024-02-14T17:49:14;4.57;;;3.03;;
65039;SDS011;51606;45.000;38.612;2024-02-14T17:51:44;2.72;;;2.20;;
65039;SDS011;51606;45.000;38.612;2024-02-14T17:54:13;4.45;;;2.88;;
65039;SDS011;51606;45.000;38.612;2024-02-14T17:56:40;5.32;;;2.97;;
65039;SDS011;51606;45.000;38.612;2024-02-14T17:59:07;5.72;;;3.38;;
65039;SDS011;51606;45.000;38.612;2024-02-14T18:01:34;4.47;;;3.10;;
65039;SDS011;51606;45.000;38.612;2024-02-14T18:04:00;5.07;;;3.08;;
65039;SDS011;51606;45.000;38.612;2024-02-14T18:06:30;8.98;;;3.97;;
65039;SDS011;51606;45.000;38.612;2024-02-14T18:08:57;6.82;;;3.42;;
65039;SDS011;51606;45.000;38.612;2024-02-14T18:11:24;7.15;;;3.90;;
65039;SDS011;51606;45.000;38.612;2024-02-14T18:13:50;23.50;;;4.45;;
65039;SDS011;51606;45.000;38.612;2024-02-14T18:16:18;8.90;;;3.75;;
65039;SDS011;51606;45.000;38.612;2024-02-14T18:18:46;10.57;;;3.33;;
65039;SDS011;51606;45.000;38.612;2024-02-14T18:21:13;7.28;;;3.25;;
65039;SDS011;51606;45.000;38.612;2024-02-14T18:23:39;5.60;;;3.50;;
65039;SDS011;51606;45.000;38.612;2024-02-14T18:26:06;7.38;;;3.22;;
65039;SDS011;51606;45.000;38.612;2024-02-14T18:28:34;8.55;;;3.22;;
65039;SDS011;51606;45.000;38.612;2024-02-14T18:31:01;5.60;;;3.72;;
65039;SDS011;51606;45.000;38.612;2024-02-14T18:33:29;12.27;;;3.55;;
65039;SDS011;51606;45.000;38.612;2024-02-14T18:35:57;10.15;;;2.88;;
65039;SDS011;51606;45.000;38.612;2024-02-14T18:38:24;6.22;;;3.42;;
65039;SDS011;51606;45.000;38.612;2024-02-14T18:40:57;8.70;;;4.18;;
65039;SDS011;51606;45.000;38.612;2024-02-14T18:43:26;5.60;;;3.13;;
65039;SDS011;51606;45.000;38.612;2024-02-14T18:45:53;4.82;;;2.83;;
65039;SDS011;51606;45.000;38.612;2024-02-14T18:48:21;11.15;;;3.75;;
65039;SDS011;51606;45.000;38.612;2024-02-14T18:50:47;6.18;;;3.70;;
65039;SDS011;51606;45.000;38.612;2024-02-14T18:53:14;8.98;;;3.03;;
65039;SDS011;51606;45.000;38.612;2024-02-14T18:55:40;6.25;;;3.58;;
65039;SDS011;51606;45.000;38.612;2024-02-14T18:58:07;6.85;;;3.55;;
65039;SDS011;51606;45.000;38.612;2024-02-14T19:00:34;7.22;;;3.35;;
65039;SDS011;51606;45.000;38.612;2024-02-14T19:03:01;5.28;;;2.72;;
65039;SDS011;51606;45.000;38.612;2024-02-14T19:05:28;6.15;;;3.60;;
65039;SDS011;51606;45.000;38.612;2024-02-14T19:07:55;10.93;;;4.35;;
65039;SDS011;51606;45.000;38.612;2024-02-14T19:10:21;10.57;;;3.58;;
65039;SDS011;51606;45.000;38.612;2024-02-14T19:12:48;6.32;;;3.55;;
65039;SDS011;51606;45.000;38.612;2024-02-14T19:15:15;5.97;;;3.03;;
65039;SDS011;51606;45.000;38.612;2024-02-14T19:17:41;5.10;;;3.40;;
65039;SDS011;51606;45.000;38.612;2024-02-14T19:20:08;4.20;;;3.03;;
65039;SDS011;51606;45.000;38.612;2024-02-14T19:22:35;3.20;;;2.55;;
65039;SDS011;51606;45.000;38.612;2024-02-14T19:25:02;4.93;;;3.05;;
65039;SDS011;51606;45.000;38.612;2024-02-14T19:27:28;8.70;;;3.85;;
65039;SDS011;51606;45.000;38.612;2024-02-14T19:29:55;17.70;;;4.15;;
65039;SDS011;51606;45.000;38.612;2024-02-14T19:32:21;4.15;;;3.15;;
65039;SDS011;51606;45.000;38.612;2024-02-14T19:34:48;6.10;;;3.65;;
65039;SDS011;51606;45.000;38.612;2024-02-14T19:37:14;9.57;;;4.40;;
65039;SDS011;51606;45.000;38.612;2024-02-14T19:39:41;5.68;;;3.55;;
65039;SDS011;51606;45.000;38.612;2024-02-14T19:42:07;7.40;;;4.38;;
65039;SDS011;51606;45.000;38.612;2024-02-14T19:44:34;5.03;;;3.50;;
65039;SDS011;51606;45.000;38.612;2024-02-14T19:47:00;8.90;;;4.35;;
65039;SDS011;51606;45.000;38.612;2024-02-14T19:49:26;6.30;;;3.50;;
65039;SDS011;51606;45.000;38.612;2024-02-14T19:51:53;4.60;;;3.10;;
65039;SDS011;51606;45.000;38.612;2024-02-14T19:54:20;8.40;;;4.03;;
65039;SDS011;51606;45.000;38.612;2024-02-14T19:56:46;4.03;;;2.97;;
65039;SDS011;51606;45.000;38.612;2024-02-14T19:59:13;5.07;;;3.22;;
65039;SDS011;51606;45.000;38.612;2024-02-14T20:01:40;11.90;;;3.60;;
65039;SDS011;51606;45.000;38.612;2024-02-14T20:04:06;5.82;;;3.45;;
65039;SDS011;51606;45.000;38.612;2024-02-14T20:06:35;8.35;;;5.15;;
65039;SDS011;51606;45.000;38.612;2024-02-14T20:09:03;5.05;;;3.20;;
65039;SDS011;51606;45.000;38.612;2024-02-14T20:11:32;5.82;;;3.60;;
65039;SDS011;51606;45.000;38.612;2024-02-14T20:13:59;5.30;;;3.83;;
65039;SDS011;51606;45.000;38.612;2024-02-14T20:16:26;5.78;;;3.42;;
65039;SDS011;51606;45.000;38.612;2024-02-14T20:18:53;8.73;;;4.20;;
65039;SDS011;51606;45.000;38.612;2024-02-14T20:21:19;4.60;;;2.55;;
65039;SDS011;51606;45.000;38.612;2024-02-14T20:23:46;5.68;;;3.42;;
65039;SDS011;51606;45.000;38.612;2024-02-14T20:26:12;8.98;;;2.97;;
65039;SDS011;51606;45.000;38.612;2024-02-14T20:28:43;8.45;;;3.88;;
65039;SDS011;51606;45.000;38.612;2024-02-14T20:31:10;7.93;;;3.58;;
65039;SDS011;51606;45.000;38.612;2024-02-14T20:33:36;9.27;;;3.08;;
65039;SDS011;51606;45.000;38.612;2024-02-14T20:36:03;4.32;;;2.17;;
65039;SDS011;51606;45.000;38.612;2024-02-14T20:38:30;6.40;;;3.60;;
65039;SDS011;51606;45.000;38.612;2024-02-14T20:40:56;11.23;;;3.88;;
65039;SDS011;51606;45.000;38.612;2024-02-14T20:43:23;8.75;;;3.30;;
65039;SDS011;51606;45.000;38.612;2024-02-14T20:45:50;5.05;;;3.33;;
65039;SDS011;51606;45.000;38.612;2024-02-14T20:48:16;7.03;;;3.72;;
65039;SDS011;51606;45.000;38.612;2024-02-14T20:50:43;7.22;;;3.17;;
65039;SDS011;51606;45.000;38.612;2024-02-14T20:53:10;5.22;;;3.80;;
65039;SDS011;51606;45.000;38.612;2024-02-14T20:55:36;7.38;;;4.15;;
65039;SDS011;51606;45.000;38.612;2024-02-14T20:58:02;14.02;;;3.53;;
65039;SDS011;51606;45.000;38.612;2024-02-14T21:00:29;5.30;;;3.53;;
65039;SDS011;51606;45.000;38.612;2024-02-14T21:02:56;4.20;;;2.97;;
65039;SDS011;51606;45.000;38.612;2024-02-14T21:05:22;7.03;;;3.90;;
65039;SDS011;51606;45.000;38.612;2024-02-14T21:07:49;5.50;;;3.65;;
65039;SDS011;51606;45.000;38.612;2024-02-14T21:10:17;5.95;;;3.97;;
65039;SDS011;51606;45.000;38.612;2024-02-14T21:12:43;5.50;;;3.58;;
65039;SDS011;51606;45.000;38.612;2024-02-14T21:15:09;10.77;;;2.83;;
65039;SDS011;51606;45.000;38.612;2024-02-14T21:17:36;16.40;;;5.47;;
65039;SDS011;51606;45.000;38.612;2024-02-14T21:20:05;7.43;;;4.22;;
65039;SDS011;51606;45.000;38.612;2024-02-14T21:22:32;9.07;;;3.45;;
65039;SDS011;51606;45.000;38.612;2024-02-14T21:24:59;8.05;;;3.35;;
65039;SDS011;51606;45.000;38.612;2024-02-14T21:27:26;5.88;;;3.50;;
65039;SDS011;51606;45.000;38.612;2024-02-14T21:29:52;5.88;;;3.08;;
65039;SDS011;51606;45.000;38.612;2024-02-14T21:32:18;5.40;;;3.70;;
65039;SDS011;51606;45.000;38.612;2024-02-14T21:34:45;6.55;;;3.90;;
65039;SDS011;51606;45.000;38.612;2024-02-14T21:37:12;7.15;;;3.33;;
65039;SDS011;51606;45.000;38.612;2024-02-14T21:39:38;9.57;;;4.28;;
65039;SDS011;51606;45.000;38.612;2024-02-14T21:42:05;23.35;;;4.22;;
65039;SDS011;51606;45.000;38.612;2024-02-14T21:44:33;5.80;;;4.15;;
65039;SDS011;51606;45.000;38.612;2024-02-14T21:47:00;6.28;;;3.33;;
65039;SDS011;51606;45.000;38.612;2024-02-14T21:49:26;7.00;;;4.10;;
65039;SDS011;51606;45.000;38.612;2024-02-14T21:51:53;5.70;;;3.33;;
65039;SDS011;51606;45.000;38.612;2024-02-14T21:54:20;8.57;;;3.10;;
65039;SDS011;51606;45.000;38.612;2024-02-14T21:56:46;7.53;;;3.20;;
65039;SDS011;51606;45.000;38.612;2024-02-14T21:59:13;5.43;;;3.22;;
65039;SDS011;51606;45.000;38.612;2024-02-14T22:01:40;14.43;;;3.13;;
65039;SDS011;51606;45.000;38.612;2024-02-14T22:04:07;3.47;;;2.83;;
65039;SDS011;51606;45.000;38.612;2024-02-14T22:06:34;4.45;;;2.78;;
65039;SDS011;51606;45.000;38.612;2024-02-14T22:09:54;9.60;;;3.88;;
65039;SDS011;51606;45.000;38.612;2024-02-14T22:12:22;6.25;;;3.50;;
65039;SDS011;51606;45.000;38.612;2024-02-14T22:14:48;10.25;;;4.22;;
65039;SDS011;51606;45.000;38.612;2024-02-14T22:17:18;7.20;;;3.80;;
65039;SDS011;51606;45.000;38.612;2024-02-14T22:19:44;5.28;;;3.40;;
65039;SDS011;51606;45.000;38.612;2024-02-14T22:22:11;5.22;;;3.28;;